createdAt,value
2019-02-27T08:37:47.170Z,56.01
2019-02-27T08:40:24.370Z,56.26
2019-02-27T08:42:55.748Z,56.79
2019-02-27T08:45:29.694Z,56.30
2019-02-27T08:48:03.130Z,56.71
2019-02-27T08:50:34.510Z,56.72
2019-02-27T08:53:10.746Z,56.68
2019-02-27T08:55:56.881Z,56.01
2019-02-27T08:58:29.749Z,56.24
2019-02-27T09:01:02.576Z,55.54
2019-02-27T09:03:37.651Z,54.11
2019-02-27T09:06:09.810Z,53.75
2019-02-27T09:08:44.343Z,52.68
2019-02-27T09:11:20.034Z,51.87
2019-02-27T09:13:53.075Z,52.64
2019-02-27T09:16:27.644Z,53.62
2019-02-27T09:19:03.955Z,54.38
2019-02-27T09:21:38.697Z,54.73
2019-02-27T09:24:09.398Z,54.65
2019-02-27T09:26:42.712Z,54.63
2019-02-27T09:29:18.397Z,52.89
2019-02-27T09:31:51.028Z,50.10
2019-02-27T09:34:26.685Z,49.77
2019-02-27T09:36:55.373Z,51.70
2019-02-27T09:39:31.045Z,52.97
2019-02-27T09:42:02.708Z,53.32
2019-02-27T09:46:19.533Z,51.96
2019-02-27T09:48:50.774Z,51.58
2019-02-27T09:51:22.208Z,52.75
2019-02-27T09:53:54.509Z,52.58
2019-02-27T09:56:36.832Z,53.72
2019-02-27T09:59:08.564Z,54.98
2019-02-27T10:01:39.890Z,55.57
2019-02-27T10:04:10.590Z,57.58
2019-02-27T10:06:43.558Z,58.92
2019-02-27T10:09:17.262Z,58.27
2019-02-27T10:11:52.217Z,58.40
2019-02-27T10:14:25.056Z,55.93
2019-02-27T10:17:01.526Z,52.68
2019-02-27T10:20:38.309Z,50.91
2019-02-27T10:23:09.629Z,48.44
2019-02-27T10:25:43.505Z,49.06
2019-02-27T10:28:15.253Z,48.84
2019-02-27T10:30:46.973Z,48.34
2019-02-27T10:33:19.653Z,46.55
2019-02-27T10:35:51.062Z,43.92
2019-02-27T10:38:22.149Z,43.52
2019-02-27T10:40:54.538Z,45.12
2019-02-27T10:43:25.785Z,46.79
2019-02-27T10:45:58.249Z,48.10
2019-02-27T10:48:30.609Z,49.40
2019-02-27T10:51:02.191Z,49.78
2019-02-27T10:53:35.481Z,50.65
2019-02-27T10:56:07.686Z,50.60
2019-02-27T10:58:38.970Z,50.08
2019-02-27T11:01:10.320Z,48.85
2019-02-27T11:03:41.970Z,49.47
2019-02-27T11:06:13.499Z,49.11
2019-02-27T11:08:45.323Z,46.52
2019-02-27T11:11:16.581Z,45.30
2019-02-27T11:13:51.724Z,46.55
2019-02-27T11:16:25.500Z,47.66
2019-02-27T11:18:58.983Z,48.59
2019-02-27T11:21:31.114Z,49.47
2019-02-27T11:24:03.511Z,49.70
2019-02-27T11:26:35.873Z,49.97
2019-02-27T11:29:10.485Z,49.49
2019-02-27T11:31:45.444Z,50.01
2019-02-27T11:34:17.424Z,52.48
2019-02-27T11:36:48.875Z,48.92
2019-02-27T11:39:20.597Z,49.71
2019-02-27T11:42:00.504Z,50.24
2019-02-27T11:44:31.065Z,50.50
2019-02-27T11:47:04.653Z,50.09
2019-02-27T11:49:38.773Z,50.09
2019-02-27T11:52:10.160Z,49.98
2019-02-27T11:54:43.308Z,50.19
2019-02-27T11:57:15.491Z,49.71
2019-02-27T11:59:47.480Z,48.88
2019-02-27T12:02:28.620Z,48.80
2019-02-27T12:04:55.364Z,49.71
2019-02-27T12:07:25.140Z,49.29
2019-02-27T12:09:56.568Z,49.62
2019-02-27T12:12:29.023Z,50.04
2019-02-27T12:15:00.418Z,50.29
2019-02-27T12:17:32.347Z,50.36
2019-02-27T12:20:12.874Z,49.94
2019-02-27T12:22:44.167Z,50.88
2019-02-27T12:25:18.183Z,50.76
2019-02-27T12:27:50.994Z,50.36
2019-02-27T12:30:29.564Z,50.74
2019-02-27T12:33:02.808Z,51.12
2019-02-27T12:35:36.197Z,51.06
2019-02-27T12:38:08.527Z,51.37
2019-02-27T12:40:40.393Z,51.56
2019-02-27T12:43:17.441Z,52.55
2019-02-27T12:45:46.547Z,52.66
2019-02-27T12:48:18.991Z,53.01
2019-02-27T12:50:50.275Z,52.47
2019-02-27T12:53:27.744Z,51.92
2019-02-27T12:55:59.700Z,52.36
2019-02-27T12:58:32.989Z,52.79
2019-02-27T13:01:07.001Z,52.98
2019-02-27T13:03:42.251Z,52.75
2019-02-27T13:06:11.781Z,53.01
2019-02-27T13:08:43.198Z,53.12
2019-02-27T13:11:14.546Z,53.28
2019-02-27T13:13:46.292Z,53.10
2019-02-27T13:16:18.682Z,52.57
2019-02-27T13:18:52.041Z,52.66
2019-02-27T13:21:23.785Z,52.51
2019-02-27T13:23:55.867Z,52.19
2019-02-27T13:26:34.741Z,51.85
2019-02-27T13:29:08.743Z,52.56
2019-02-27T13:31:40.259Z,52.96
2019-02-27T13:34:13.912Z,53.37
2019-02-27T13:36:46.452Z,53.22
2019-02-27T13:39:17.694Z,53.81
2019-02-27T13:41:54.251Z,54.04
2019-02-27T13:44:36.392Z,54.39
2019-02-27T13:47:10.915Z,54.66
2019-02-27T13:49:45.005Z,54.97
2019-02-27T13:52:18.114Z,54.79
2019-02-27T13:54:50.847Z,54.92
2019-02-27T13:57:24.986Z,55.39
2019-02-27T13:59:55.778Z,55.21
2019-02-27T14:02:28.204Z,55.43
2019-02-27T14:05:00.781Z,55.70
2019-02-27T14:07:35.098Z,55.89
2019-02-27T14:10:17.154Z,56.12
2019-02-27T14:12:47.891Z,56.51
2019-02-27T14:15:21.446Z,57.76
2019-02-27T14:17:56.452Z,58.43
2019-02-27T14:20:29.357Z,59.04
2019-02-27T14:23:01.373Z,59.77
2019-02-27T14:25:38.480Z,60.42
2019-02-27T14:28:09.913Z,60.71
2019-02-27T14:30:49.676Z,60.91
2019-02-27T14:33:21.409Z,61.19
2019-02-27T14:35:54.811Z,61.84
2019-02-27T14:38:29.364Z,61.75
2019-02-27T14:41:01.262Z,61.59
2019-02-27T14:43:35.004Z,61.92
2019-02-27T14:46:11.445Z,62.36
2019-02-27T14:48:49.184Z,62.28
2019-02-27T14:51:26.051Z,61.94
2019-02-27T14:53:59.776Z,62.53
2019-02-27T14:56:33.935Z,62.10
2019-02-27T14:59:09.229Z,62.05
2019-02-27T15:01:42.871Z,62.42
2019-02-27T15:04:16.383Z,62.55
2019-02-27T15:06:53.027Z,62.29
2019-02-27T15:09:26.178Z,62.61
2019-02-27T15:11:59.314Z,62.97
2019-02-27T15:14:31.604Z,62.90
2019-02-27T15:17:07.693Z,62.79
2019-02-27T15:19:44.850Z,62.83
2019-02-27T15:22:20.248Z,63.12
2019-02-27T15:24:54.083Z,63.25
2019-02-27T15:27:25.707Z,63.30
2019-02-27T15:30:02.179Z,63.39
2019-02-27T15:32:37.451Z,63.26
2019-02-27T15:35:12.655Z,63.32
2019-02-27T15:38:00.293Z,63.43
2019-02-27T15:40:39.997Z,63.60
2019-02-27T15:43:16.736Z,63.99
2019-02-27T15:45:51.309Z,64.01
2019-02-27T15:48:25.625Z,64.23
2019-02-27T15:50:58.336Z,64.48
2019-02-27T15:53:31.396Z,64.54
2019-02-27T15:56:05.475Z,64.74
2019-02-27T15:58:36.218Z,64.83
2019-02-27T16:01:08.615Z,64.51
2019-02-27T16:03:42.016Z,64.65
2019-02-27T16:06:14.511Z,65.14
2019-02-27T16:08:45.870Z,64.91
2019-02-27T16:11:19.945Z,65.08
2019-02-27T16:13:53.068Z,65.09
2019-02-27T16:16:24.620Z,65.05
2019-02-27T16:18:58.778Z,65.37
2019-02-27T16:21:49.560Z,65.11
2019-02-27T16:24:21.226Z,65.08
2019-02-27T16:26:52.931Z,64.70
2019-02-27T16:29:26.126Z,65.09
2019-02-27T16:31:59.447Z,65.19
2019-02-27T16:34:33.286Z,64.80
2019-02-27T16:37:05.698Z,64.46
2019-02-27T16:39:41.621Z,65.04
2019-02-27T16:42:13.130Z,64.81
2019-02-27T16:44:44.395Z,64.84
2019-02-27T16:47:19.898Z,64.81
2019-02-27T16:49:57.408Z,64.57
2019-02-27T16:52:29.983Z,65.03
2019-02-27T16:55:03.121Z,65.51
2019-02-27T16:57:41.393Z,64.85
2019-02-27T17:00:19.975Z,64.97
2019-02-27T17:02:51.498Z,64.80
2019-02-27T17:05:23.693Z,64.80
2019-02-27T17:08:00.541Z,64.80
2019-02-27T17:10:32.450Z,64.54
2019-02-27T17:13:04.162Z,64.62
2019-02-27T17:15:36.435Z,64.65
2019-02-27T17:18:12.666Z,64.61
2019-02-27T17:20:46.419Z,64.64
2019-02-27T17:23:20.132Z,64.75
2019-02-27T17:25:51.537Z,64.75
2019-02-27T17:28:23.988Z,64.58
2019-02-27T17:30:55.270Z,64.65
2019-02-27T17:33:27.081Z,64.57
2019-02-27T17:35:59.361Z,64.61
2019-02-27T17:38:33.198Z,64.91
2019-02-27T17:41:04.537Z,64.80
2019-02-27T17:43:35.993Z,65.04
2019-02-27T17:46:10.508Z,64.87
2019-02-27T17:48:45.980Z,64.79
2019-02-27T17:51:18.978Z,64.90
2019-02-27T17:53:51.784Z,64.92
2019-02-27T17:56:24.907Z,64.99
2019-02-27T17:58:57.056Z,65.25
2019-02-27T18:01:32.562Z,65.25
2019-02-27T18:04:03.959Z,65.15
2019-02-27T18:06:37.449Z,65.34
2019-02-27T18:09:14.290Z,65.35
2019-02-27T18:11:52.517Z,65.50
2019-02-27T18:14:26.854Z,65.20
2019-02-27T18:16:59.419Z,65.35
2019-02-27T18:19:33.207Z,65.56
2019-02-27T18:22:05.595Z,65.58
2019-02-27T18:24:37.012Z,65.58
2019-02-27T18:27:10.705Z,65.58
2019-02-27T18:29:43.701Z,65.61
2019-02-27T18:32:15.822Z,65.98
2019-02-27T18:34:47.813Z,66.03
2019-02-27T18:37:19.795Z,66.34
2019-02-27T18:39:53.417Z,66.49
2019-02-27T18:42:27.923Z,66.48
2019-02-27T18:45:00.037Z,66.68
2019-02-27T18:47:36.687Z,65.87
2019-02-27T18:50:13.917Z,66.71
2019-02-27T18:52:45.450Z,67.08
2019-02-27T18:55:17.401Z,67.04
2019-02-27T18:57:57.191Z,67.34
2019-02-27T19:00:51.955Z,67.55
2019-02-27T19:03:26.361Z,67.55
2019-02-27T19:05:58.532Z,67.67
2019-02-27T19:08:33.380Z,67.82
2019-02-27T19:11:04.770Z,68.03
2019-02-27T19:13:36.196Z,68.11
2019-02-27T19:16:07.825Z,68.37
2019-02-27T19:18:41.199Z,68.34
2019-02-27T19:21:15.330Z,68.18
2019-02-27T19:23:52.355Z,68.54
2019-02-27T19:26:29.306Z,68.69
2019-02-27T19:29:01.560Z,68.56
2019-02-27T19:31:34.758Z,68.73
2019-02-27T19:34:10.306Z,68.86
2019-02-27T19:36:45.414Z,68.91
2019-02-27T19:39:21.729Z,68.53
2019-02-27T19:41:54.136Z,68.60
2019-02-27T19:44:29.252Z,68.38
2019-02-27T19:47:00.978Z,68.50
2019-02-27T19:49:36.634Z,68.28
2019-02-27T19:52:07.127Z,68.71
2019-02-27T19:54:41.402Z,68.55
2019-02-27T19:57:14.081Z,68.29
2019-02-27T19:59:46.809Z,68.45
2019-02-27T20:02:21.253Z,68.57
2019-02-27T20:04:52.834Z,68.49
2019-02-27T20:07:24.298Z,68.62
2019-02-27T20:09:55.641Z,68.76
2019-02-27T20:12:27.722Z,68.91
2019-02-27T20:14:59.651Z,68.88
2019-02-27T20:17:33.091Z,68.95
2019-02-27T20:20:07.238Z,69.01
2019-02-27T20:22:38.858Z,69.13
2019-02-27T20:25:12.597Z,68.68
2019-02-27T20:27:45.287Z,69.38
2019-02-27T20:30:18.619Z,69.83
2019-02-27T20:32:54.199Z,69.71
2019-02-27T20:35:25.799Z,69.78
2019-02-27T20:38:01.626Z,69.97
2019-02-27T20:40:35.390Z,70.13
2019-02-27T20:43:08.767Z,70.28
2019-02-27T20:45:42.813Z,70.28
2019-02-27T20:48:16.491Z,70.00
2019-02-27T20:50:51.146Z,69.98
2019-02-27T20:53:25.824Z,69.93
2019-02-27T20:55:57.710Z,70.12
2019-02-27T20:58:30.166Z,69.86
2019-02-27T21:01:10.037Z,69.70
2019-02-27T21:03:43.816Z,69.58
2019-02-27T21:06:16.264Z,70.06
2019-02-27T21:08:47.963Z,69.81
2019-02-27T21:11:20.672Z,69.35
2019-02-27T21:13:53.788Z,69.71
2019-02-27T21:16:25.867Z,69.92
2019-02-27T21:18:57.133Z,69.95
2019-02-27T21:21:28.985Z,69.71
2019-02-27T21:24:06.437Z,69.60
2019-02-27T21:26:39.393Z,69.44
2019-02-27T21:29:10.714Z,69.37
2019-02-27T21:31:44.378Z,69.14
2019-02-27T21:34:20.233Z,69.26
2019-02-27T21:36:54.463Z,69.33
2019-02-27T21:39:28.354Z,69.60
2019-02-27T21:42:01.579Z,69.69
2019-02-27T21:44:36.535Z,69.88
2019-02-27T21:47:08.215Z,69.70
2019-02-27T21:49:41.357Z,70.35
2019-02-27T21:52:25.858Z,70.41
2019-02-27T21:54:58.849Z,70.59
2019-02-27T21:57:30.374Z,70.83
2019-02-27T22:00:03.407Z,71.14
2019-02-27T22:02:37.794Z,71.65
2019-02-27T22:05:18.382Z,71.67
2019-02-27T22:10:38.456Z,72.40
2019-02-27T22:13:13.130Z,72.81
2019-02-27T22:15:47.393Z,72.50
2019-02-27T22:18:22.589Z,72.44
2019-02-27T22:20:59.460Z,72.94
2019-02-27T22:23:30.989Z,72.95
2019-02-27T22:26:04.361Z,72.97
2019-02-27T22:28:38.833Z,72.81
2019-02-27T22:31:11.920Z,72.66
2019-02-27T22:33:45.616Z,72.93
2019-02-27T22:36:17.389Z,72.77
2019-02-27T22:38:48.953Z,72.78
2019-02-27T22:41:20.043Z,72.96
2019-02-27T22:43:55.717Z,73.16
2019-02-27T22:46:28.011Z,73.37
2019-02-27T22:49:00.037Z,73.32
2019-02-27T22:51:32.394Z,72.91
2019-02-27T22:54:05.578Z,73.24
2019-02-27T22:56:37.074Z,73.20
2019-02-27T22:59:08.715Z,73.36
2019-02-27T23:01:43.594Z,73.20
2019-02-27T23:04:15.568Z,73.29
2019-02-27T23:06:47.077Z,73.33
2019-02-27T23:09:19.516Z,73.42
2019-02-27T23:11:51.588Z,72.96
2019-02-27T23:14:24.205Z,73.06
2019-02-27T23:16:55.904Z,73.26
2019-02-27T23:19:31.228Z,73.31
2019-02-27T23:22:04.607Z,72.76
2019-02-27T23:24:36.064Z,73.06
2019-02-27T23:27:07.610Z,72.99
2019-02-27T23:29:39.874Z,73.02
2019-02-27T23:32:12.637Z,72.86
2019-02-27T23:34:43.813Z,72.91
2019-02-27T23:37:15.485Z,72.98
2019-02-27T23:39:48.148Z,72.96
2019-02-27T23:42:19.542Z,73.22
2019-02-27T23:44:52.076Z,73.14
2019-02-27T23:47:23.703Z,72.98
2019-02-27T23:49:55.396Z,73.16
2019-02-27T23:52:27.092Z,73.09
2019-02-27T23:54:59.923Z,72.61
2019-02-27T23:57:31.272Z,72.90
